Terminal Aerodrome Forecast
Issued by NWS

Home | Current Version | Previous Version | Graphics & Text | Print | Product List | Glossary On
Versions: 1 2 3 4 5 6 7 8 9 10 11 12 13 14 15 16 17 18 19 20 21 22 23 24 25 26 27 28 29 30
000
FTUS43 KABR 112200 AAB
TAFPIR
TAF AMD
KPIR 112211Z 1122/1218 02009KT P6SM -RA VCTS SCT035CB
     FM112300 04011KT P6SM SCT035
     FM120600 02006KT P6SM -SHRA VCTS SCT040CB OVC070
     FM121200 05006KT P6SM VCSH BKN040=

USA.gov is the U.S. government's official web portal to all federal, state and local government web resources and services.